Tiempo atmosférico en la estación meteorológica de Chelva, València/Valencia (546 m.)



Fecha
DESCASC
Temp. máxima en grados centígrados (hora)
DESCASC
Temp. mínima en grados centígrados (hora)
DESCASC
Temp. media en grados centígrados
DESCASC
Racha de viento máxima en m/sg (hora)
DESCASC
Velocidad máxima media en intervalos de 10 minutos(hora)
DESCASC
Precipitaciones diarias en mm
DESCASC
Precipitaciones de 00:00 a 06:00 en mm
DESCASC
Precipitaciones de 06:00 a 12:00 en mm
DESCASC
Precipitaciones de 12:00 a 18:00 en mm
DESCASC
Precipitaciones de 18:00 a 24:00 en mm
DESCASC
23-06-2019 31 (11:40) 14.6 (06:40) 22.8 10.28 (17:40) 6.39 (15:40) 0 0 0 0 0
22-06-2019 27.8 (17:00) 14.2 (06:50) 21 10 (16:00) 5.83 (17:20) 0 0 0 0 0
21-06-2019 26.7 (14:30) 16.7 (01:30) 21.7 11.67 (17:50) 6.39 (17:50) 0 0 0 0 0
20-06-2019 26.6 (14:00) 16.3 (00:00) 21.4 12.22 (13:30) 6.94 (15:10) 0 0 0 0 0
19-06-2019 -- (--) -- (--) -- -- (--) -- (--) -- -- -- -- 0
18-06-2019 -- (--) -- (--) -- -- (--) -- (--) -- 0 0 0 --
17-06-2019 31.1 (12:30) 14 (00:00) 22.6 10.28 (15:10) 6.39 (15:10) 0 0 0 0 0
16-06-2019 25.4 (15:50) 11 (00:00) 18.2 9.44 (16:50) 5.28 (18:00) 0 0 0 0 0
15-06-2019 29.8 (17:10) 15.2 (00:00) 22.5 10 (13:40) 5.56 (18:40) 0 0 0 0 0
14-06-2019 29.8 (18:30) 15.2 (00:00) 22.5 12.78 (16:00) 6.11 (16:40) 0.2 0 0.2 0 0
13-06-2019 22.6 (17:00) 13.4 (00:00) 18 9.44 (16:30) 5.83 (16:30) 0 0 0 0 0
12-06-2019 22.2 (15:40) 6 (00:00) 14.1 10.83 (18:30) 6.67 (17:40) 0 0 0 0 0
11-06-2019 21.2 (14:40) 11.5 (00:00) 16.4 10 (17:20) 5.28 (17:20) 0 0 0 0 0
10-06-2019 28.7 (15:40) 14.1 (00:00) 21.4 10.56 (16:10) 6.67 (16:20) 0 0 0 0 0
09-06-2019 26.1 (17:10) 13.1 (00:00) 19.6 8.61 (18:00) 5 (15:50) 0 0 0 0 0
08-06-2019 22.1 (15:20) 10.7 (00:00) 16.4 12.78 (13:50) 7.5 (14:50) 0 0 0 0 0
07-06-2019 26.9 (17:30) 10.8 (00:00) 18.8 14.72 (11:30) 8.06 (11:30) 0 0 0 0 0
06-06-2019 23.4 (15:50) 9.6 (00:00) 16.5 11.11 (17:00) 6.39 (17:40) 0 0 0 0 0
05-06-2019 24.4 (16:00) 12.8 (00:00) 18.6 17.78 (12:40) 9.44 (10:20) 0 0 0 0 0
04-06-2019 29.6 (15:30) 12.1 (00:00) 20.9 9.72 (16:10) 5.83 (15:40) 0 0 0 0 0
03-06-2019 29.5 (15:50) 12.5 (00:00) 21 10.28 (17:50) 5.83 (18:00) 0 0 0 0 0
02-06-2019 28.2 (15:50) 11.1 (00:00) 19.7 10 (16:00) 6.11 (16:00) 0 0 0 0 0
01-06-2019 27.2 (14:10) 10.4 (00:00) 18.8 11.39 (16:00) 6.11 (15:20) 0 0 0 0 0
31-05-2019 26.2 (14:50) 10.2 (00:00) 18.2 11.39 (17:10) 6.11 (17:10) 0 0 0 0 0
30-05-2019 25.9 (16:00) 8.5 (00:00) 17.2 9.44 (17:30) 5.83 (18:20) 0 0 0 0 0
29-05-2019 25.7 (16:30) 9.2 (00:00) 17.5 8.89 (14:50) 5.28 (17:10) 0 0 0 0 0
28-05-2019 26.9 (15:10) 12.6 (00:00) 19.8 9.72 (16:30) 5.83 (16:30) 0 0 0 0 0
27-05-2019 26.4 (15:10) 10.5 (00:00) 18.4 9.17 (15:50) 5.83 (15:20) 0 0 0 0 0
26-05-2019 25.4 (16:40) 11.4 (00:00) 18.4 8.61 (10:50) 5 (10:20) 0 0 0 0 0
25-05-2019 21.6 (15:20) 12.9 (00:00) 17.3 6.67 (13:20) 4.44 (12:30) 0 0 0 0 0

Gráficas

Temp. máximas Temp. mínimas Temp. medias Precipitaciones Rachas de viento máximas Velocidades máximas media en intervalos de 10 minutos

Datos horarios

Fecha y hora oficial Temperatura (ºC) Velocidad del viento (km/h) Dirección del viento Racha (km/h) Dirección de racha Precipitación (mm) Presión (hPa) Tendencia (hPa) Humedad (%)
2019-06-23 23:00:00 20.9 8 Sudeste 15 Sudeste 0 -- -- 52
2019-06-23 22:00:00 22.5 9 Sudeste 18 Sudeste 0 -- -- 46
2019-06-23 21:00:00 24.6 11 Sudeste 28 Sudeste 0 -- -- 37
2019-06-23 20:00:00 26.8 18 Sudeste 30 Sudeste 0 -- -- 35
2019-06-23 19:00:00 28.1 16 Sudeste 35 Sudeste 0 -- -- 33
2019-06-23 18:00:00 28.5 20 Sudeste 37 Sudeste 0 -- -- 35
2019-06-23 17:00:00 29.9 20 Sudeste 34 Sudeste 0 -- -- 34
2019-06-23 16:00:00 30 20 Sudeste 36 Sudeste 0 -- -- 35
2019-06-23 15:00:00 30.4 21 Sudeste 36 Sur 0 -- -- 33
2019-06-23 14:00:00 30.6 19 Sudeste 33 Sudeste 0 -- -- 32
2019-06-23 13:00:00 30 17 Sudeste 28 Sudeste 0 -- -- 35
2019-06-23 12:00:00 30.5 7 Sudeste 16 Sur 0 -- -- 28
2019-06-23 11:00:00 29 5 Este 9 Sudeste 0 -- -- 31
2019-06-23 10:00:00 25.7 3 Sur 6 Sudeste 0 -- -- 47
2019-06-23 09:00:00 23.2 2 Sur 5 Este 0 -- -- 53
2019-06-23 08:00:00 18 0 Calma 6 Oeste 0 -- -- 70
2019-06-23 07:00:00 14.8 0 Calma 7 Oeste 0 -- -- 81
2019-06-23 06:00:00 15 5 Oeste 8 Sudoeste 0 -- -- 83
2019-06-23 05:00:00 15.3 3 Norte 5 Norte 0 -- -- 83
2019-06-23 04:00:00 15.3 0 Calma 3 Nordeste 0 -- -- 85
2019-06-23 03:00:00 15.9 2 Nordeste 4 Nordeste 0 -- -- 83
2019-06-23 02:00:00 16.8 2 Norte 6 Norte 0 -- -- 81
2019-06-23 01:00:00 17.7 3 Nordeste 6 Norte 0 -- -- 77
2019-06-23 00:00:00 18.3 2 Nordeste 7 Sudeste 0 -- -- 75
2019-06-22 23:00:00 19.5 4 Sudeste 9 Este 0 -- -- 74
2019-06-22 22:00:00 20.5 8 Sudeste 19 Sudeste 0 -- -- 70
2019-06-22 21:00:00 21.9 13 Sudeste 27 Sudeste 0 -- -- 64
2019-06-22 20:00:00 23.3 16 Sudeste 28 Sudeste 0 -- -- 59
2019-06-22 19:00:00 24.9 16 Sudeste 33 Sudeste 0 -- -- 55
2019-06-22 18:00:00 26.3 16 Sudeste 34 Sudeste 0 -- -- 52
2019-06-22 17:00:00 27.8 17 Sudeste 35 Sudeste 0 -- -- 49
2019-06-22 16:00:00 27.5 20 Sudeste 36 Sudeste 0 -- -- 49
2019-06-22 15:00:00 27.5 18 Sudeste 27 Sudeste 0 -- -- 48
2019-06-22 14:00:00 27.2 12 Sudeste 26 Sudeste 0 -- -- 49
2019-06-22 13:00:00 25.7 8 Sudeste 17 Sur 0 -- -- 52
2019-06-22 12:00:00 24.9 10 Sudeste 21 Sudeste 0 -- -- 54
2019-06-22 11:00:00 23.7 5 Sur 13 Sudeste 0 -- -- 58
2019-06-22 10:00:00 21.9 4 Sur 10 Sur 0 -- -- 64
2019-06-22 09:00:00 20.3 3 Sudoeste 7 Sudoeste 0 -- -- 69
2019-06-22 08:00:00 16.3 2 Oeste 4 Oeste 0 -- -- 84
2019-06-22 07:00:00 14.4 0 Calma 5 Norte 0 -- -- 91
2019-06-22 06:00:00 14.6 0 Calma 5 Nordeste 0 -- -- 89
2019-06-22 05:00:00 14.9 2 Norte 4 Norte 0 -- -- 89
2019-06-22 04:00:00 15.4 0 Calma 4 Oeste 0 -- -- 88
2019-06-22 03:00:00 16.1 3 Nordeste 6 Este 0 -- -- 85
2019-06-22 02:00:00 17 0 Calma 7 Nordeste 0 -- -- 83
2019-06-22 01:00:00 17.7 3 Nordeste 6 Nordeste 0 -- -- 80
2019-06-22 00:00:00 18.9 2 Sudeste 15 Este 0 -- -- 75
2019-06-21 23:00:00 19.5 9 Sudeste 18 Sudeste 0 -- -- 75
2019-06-21 22:00:00 19.7 9 Sudeste 22 Sudeste 0 -- -- 76
2019-06-21 21:00:00 21 13 Sudeste 29 Sudeste 0 -- -- 71
2019-06-21 20:00:00 21.9 18 Sudeste 35 Sudeste 0 -- -- 69
2019-06-21 19:00:00 23.8 20 Sudeste 35 Sudeste 0 -- -- 63
2019-06-21 18:00:00 24.9 19 Sudeste 42 Sudeste 0 -- -- 60
2019-06-21 17:00:00 25.6 20 Sudeste 39 Sudeste 0 -- -- 57
2019-06-21 16:00:00 26.1 22 Sudeste 37 Sudeste 0 -- -- 55
2019-06-21 15:00:00 26.6 20 Sudeste 33 Sudeste 0 -- -- 53
2019-06-21 14:00:00 26.3 19 Sudeste 36 Sudeste 0 -- -- 53
2019-06-21 13:00:00 26.4 11 Sudeste 25 Este 0 -- -- 51
2019-06-21 12:00:00 25.3 6 Sudeste 17 Este 0 -- -- 54
2019-06-21 11:00:00 23 6 Sudoeste 13 Sudoeste 0 -- -- 61
2019-06-21 10:00:00 22.8 5 Sur 10 Sur 0 -- -- 62
2019-06-21 09:00:00 21.5 3 Sur 8 Sudoeste 0 -- -- 70
2019-06-21 08:00:00 18.6 3 Oeste 5 Oeste 0 -- -- 85
2019-06-21 07:00:00 17.8 0 Calma 3 Sudeste 0 -- -- 88
2019-06-21 06:00:00 17.8 0 Calma 5 Noroeste 0 -- -- 87
2019-06-21 05:00:00 17.8 0 Calma 4 Este 0 -- -- 88
2019-06-21 04:00:00 17.7 0 Calma 4 Este 0 -- -- 88
2019-06-21 03:00:00 17.6 4 Sudeste 9 Nordeste 0 -- -- 83
2019-06-21 02:00:00 16.8 0 Calma 4 Este 0 -- -- 88
2019-06-21 01:00:00 17.1 0 Calma 6 Este 0 -- -- 87
2019-06-21 00:00:00 18.2 4 Sudeste 8 Sudeste 0 -- -- 82
2019-06-20 23:00:00 18.9 4 Sudeste 15 Sudeste 0 -- -- 77
2019-06-20 22:00:00 19.9 8 Sudeste 19 Sudeste 0 -- -- 73
2019-06-20 21:00:00 21.3 11 Sudeste 23 Sudeste 0 -- -- 69
2019-06-20 20:00:00 22.7 18 Sudeste 32 Sudeste 0 -- -- 63
2019-06-20 19:00:00 23.9 18 Sudeste 34 Sudeste 0 -- -- 58
2019-06-20 18:00:00 25 20 Sudeste 36 Sudeste 0 -- -- 53
2019-06-20 17:00:00 25.3 23 Sudeste 39 Sudeste 0 -- -- 54
2019-06-20 16:00:00 26.4 20 Sudeste 41 Sudeste 0 -- -- 48
2019-06-20 15:00:00 25.5 23 Sudeste 41 Sudeste 0 -- -- 53
2019-06-20 14:00:00 26.6 20 Sudeste 44 Sudeste 0 -- -- 53
2019-06-20 13:00:00 26.2 17 Sudeste 32 Sudeste 0 -- -- 52
2019-06-20 12:00:00 25.6 19 Sur 31 Sur 0 -- -- 50
2019-06-20 11:00:00 24.1 18 Sudeste 29 Sudeste 0 -- -- 50
2019-06-20 10:00:00 24.7 12 Sudeste 19 Sudeste 0 -- -- 41
2019-06-20 09:00:00 23.7 5 Noroeste 9 Noroeste 0 -- -- 40
2019-06-20 08:00:00 21 2 Oeste 8 Noroeste 0 -- -- 46
2019-06-20 07:00:00 16.7 5 Oeste 9 Oeste 0 -- -- 56
2019-06-20 06:00:00 17.6 4 Norte 12 Noroeste 0 -- -- 53
2019-06-20 05:00:00 18.8 8 Noroeste 15 Noroeste 0 -- -- 49
2019-06-20 04:00:00 17.8 4 Noroeste 9 Oeste 0 -- -- 56
2019-06-20 03:00:00 18.2 4 Noroeste 6 Noroeste 0 -- -- 59
2019-06-20 02:00:00 18.7 3 Norte 6 Oeste 0 -- -- 58
2019-06-20 01:00:00 19.3 3 Norte 6 Norte 0 -- -- 57
2019-06-20 00:00:00 20.5 4 Norte 12 Nordeste 0 -- -- 53
2019-06-19 23:00:00 21.2 4 Nordeste 6 Norte 0 -- -- 54
2019-06-19 22:00:00 22.9 0 Calma 14 Sudeste 0 -- -- 50
2019-06-19 21:00:00 25.6 8 Sudeste 23 Sudeste 0 -- -- 45
2019-06-19 20:00:00 27.9 13 Sudeste 26 Sudeste 0 -- -- 42
2019-06-19 19:00:00 31.4 14 Sur 32 Sudoeste 0 -- -- 37
2019-06-19 18:00:00 33.2 15 Sudoeste 41 Oeste 0 -- -- 18
2019-06-19 17:00:00 33.3 15 Sudoeste 33 Oeste 0 -- -- 18
2019-06-19 16:00:00 32.7 17 Sudoeste 33 Sudoeste 0 -- -- 20
2019-06-19 15:00:00 32.4 13 Sudoeste -- -- -- -- -- 21
2019-06-19 14:00:00 -- -- -- -- -- -- -- -- --
2019-06-19 13:00:00 -- -- -- -- -- -- -- -- --
2019-06-19 12:00:00 -- -- -- -- -- -- -- -- --
2019-06-19 11:00:00 -- -- -- -- -- -- -- -- --
2019-06-19 10:00:00 -- -- -- -- -- -- -- -- --
2019-06-19 09:00:00 -- -- -- -- -- -- -- -- --
2019-06-19 08:00:00 -- -- -- -- -- -- -- -- --
2019-06-19 07:00:00 -- -- -- -- -- -- -- -- --
2019-06-19 06:00:00 -- -- -- -- -- -- -- -- --
2019-06-19 05:00:00 -- -- -- -- -- -- -- -- --
2019-06-19 04:00:00 -- -- -- -- -- -- -- -- --
2019-06-19 03:00:00 -- -- -- -- -- -- -- -- --
2019-06-19 02:00:00 -- -- -- -- -- -- -- -- --
2019-06-19 01:00:00 -- -- -- -- -- -- -- -- --
2019-06-19 00:00:00 -- -- -- -- -- -- -- -- --
2019-06-18 23:00:00 -- -- -- -- -- -- -- -- --
2019-06-18 22:00:00 -- -- -- -- -- -- -- -- --
2019-06-18 21:00:00 -- -- -- -- -- -- -- -- --
2019-06-18 20:00:00 -- -- -- -- -- -- -- -- --
2019-06-18 19:00:00 27.5 18 Sudeste 31 Sudeste 0 -- -- 31
2019-06-18 18:00:00 28 18 Sudeste 33 Sudeste 0 -- -- 32
2019-06-18 17:00:00 28.6 20 Sudeste 36 Sudeste 0 -- -- 34
2019-06-18 16:00:00 28.7 20 Sudeste 34 Sudeste 0 -- -- 39
2019-06-18 15:00:00 28.9 19 Sudeste 35 Sudeste 0 -- -- 38
2019-06-18 14:00:00 29.1 19 Sudeste 32 Sudeste 0 -- -- 34
2019-06-18 13:00:00 28.7 -- -- -- -- 0 -- -- 32
2019-06-18 12:00:00 28.2 12 Sur 18 Sudeste 0 -- -- 30
2019-06-18 11:00:00 27.4 4 Este 11 Sudeste 0 -- -- 29
2019-06-18 10:00:00 24.7 3 Sudeste 5 Sudeste 0 -- -- 36
2019-06-18 09:00:00 21.3 0 Calma 4 Oeste 0 -- -- 46
2019-06-18 08:00:00 18.5 2 Oeste 5 Noroeste 0 -- -- 51
2019-06-18 07:00:00 15.2 4 Oeste 6 Oeste 0 -- -- 63
2019-06-18 06:00:00 15.5 3 Nordeste 6 Sudoeste 0 -- -- 61
2019-06-18 05:00:00 16.1 0 Calma 5 Oeste 0 -- -- 61
2019-06-18 04:00:00 16.4 3 Oeste 6 Norte 0 -- -- 62
2019-06-18 03:00:00 16.1 0 Calma 5 Norte 0 -- -- 64
2019-06-18 02:00:00 16.5 0 Calma 6 Norte 0 -- -- 63
2019-06-18 01:00:00 17.2 0 Calma 6 Norte 0 -- -- 60
2019-06-18 00:00:00 18.5 3 Norte 8 Norte 0 -- -- 58
2019-06-17 23:00:00 19.9 5 Norte 6 Norte 0 -- -- 53
2019-06-17 22:00:00 21.5 4 Nordeste 17 Sudeste 0 -- -- 47
2019-06-17 21:00:00 23.4 12 Sudeste 26 Sudeste 0 -- -- 41
2019-06-17 20:00:00 25.2 14 Sudeste 32 Sudeste 0 -- -- 42
2019-06-17 19:00:00 26.6 18 Sudeste 33 Sudeste 0 -- -- 42
2019-06-17 18:00:00 27.7 16 Sudeste 32 Sudeste 0 -- -- 39
2019-06-17 17:00:00 28 21 Sudeste 35 Sudeste 0 -- -- 41
2019-06-17 16:00:00 28.7 21 Sudeste 37 Sudeste 0 -- -- 42
2019-06-17 15:00:00 30.3 19 Sudeste 33 Sudeste 0 -- -- 32
2019-06-17 14:00:00 30.8 17 Sudeste 31 Sudeste 0 -- -- 28
2019-06-17 13:00:00 30.8 13 Sudeste 22 Sudeste 0 -- -- 27
2019-06-17 12:00:00 30.1 4 Sudeste 15 Oeste 0 -- -- 26
2019-06-17 11:00:00 27.2 6 Oeste 16 Sudoeste 0 -- -- 36
2019-06-17 10:00:00 24.1 8 Oeste 14 Oeste 0 -- -- 46
2019-06-17 09:00:00 21 6 Noroeste 21 Oeste 0 -- -- 52
2019-06-17 08:00:00 17.5 5 Oeste 15 Noroeste 0 -- -- 63
2019-06-17 07:00:00 15 9 Noroeste 17 Noroeste 0 -- -- 74
2019-06-17 06:00:00 14 5 Noroeste 11 Noroeste 0 -- -- 79
2019-06-17 05:00:00 14.2 3 Noroeste 6 Noroeste 0 -- -- 78
2019-06-17 04:00:00 14.4 0 Calma 5 Norte 0 -- -- 79
2019-06-17 03:00:00 15.3 2 Norte 5 Oeste 0 -- -- 78
2019-06-17 02:00:00 16.2 4 Nordeste 6 Nordeste 0 -- -- 73
2019-06-17 01:00:00 16.5 3 Nordeste 6 Este 0 -- -- 72
2019-06-17 00:00:00 16.8 0 Calma 5 Norte 0 -- -- 72
2019-06-16 23:00:00 17.7 0 Calma 6 Sudeste 0 -- -- 70
2019-06-16 22:00:00 18.7 5 Sudeste 13 Sudeste 0 -- -- 66
2019-06-16 21:00:00 20 8 Sudeste 17 Sudeste 0 -- -- 62
2019-06-16 20:00:00 21.5 7 Sudeste 19 Sudeste 0 -- -- 59
2019-06-16 19:00:00 21.6 12 Sudeste 29 Sudeste 0 -- -- 58
2019-06-16 18:00:00 23.2 19 Sudeste 30 Sudeste 0 -- -- 52
2019-06-16 17:00:00 24.7 15 Sudeste 34 Este 0 -- -- 48
2019-06-16 16:00:00 25.4 15 Sudeste 30 Sudeste 0 -- -- 45
2019-06-16 15:00:00 24.2 15 Sudeste 29 Sur 0 -- -- 47
2019-06-16 14:00:00 23.1 14 Sudeste 30 Sudeste 0 -- -- 47
2019-06-16 13:00:00 23.4 15 Sudeste 26 Sudeste 0 -- -- 46
2019-06-16 12:00:00 22.1 14 Sudeste 23 Sudeste 0 -- -- 47
2019-06-16 11:00:00 20.7 10 Sudeste 21 Sudeste 0 -- -- 55
2019-06-16 10:00:00 19.7 6 Sudeste 13 Sudeste 0 -- -- 52
2019-06-16 09:00:00 18.9 2 Sudoeste 4 Sur 0 -- -- 50
2019-06-16 08:00:00 14.3 0 Calma 5 Oeste 0 -- -- 59
2019-06-16 07:00:00 11.2 0 Calma 4 Noroeste 0 -- -- 69
2019-06-16 06:00:00 11.5 2 Noroeste 5 Oeste 0 -- -- 68
2019-06-16 05:00:00 11.8 0 Calma 5 Oeste 0 -- -- 67
2019-06-16 04:00:00 12.7 2 Norte 5 Nordeste 0 -- -- 63
2019-06-16 03:00:00 13 0 Calma 4 Noroeste 0 -- -- 65
2019-06-16 02:00:00 13.8 0 Calma 6 Nordeste 0 -- -- 63
2019-06-16 01:00:00 15.3 5 Norte 12 Este 0 -- -- 55
2019-06-16 00:00:00 16.6 6 Nordeste 13 Nordeste 0 -- -- 52
2019-06-15 23:00:00 18.1 5 Este 11 Este 0 -- -- 51
2019-06-15 22:00:00 19.6 5 Sudeste 17 Sudeste 0 -- -- 41
2019-06-15 21:00:00 21.9 11 Sudeste 24 Este 0 -- -- 37
2019-06-15 20:00:00 23.8 15 Sudeste 30 Este 0 -- -- 38
2019-06-15 19:00:00 25.8 17 Sudeste 34 Este 0 -- -- 34
2019-06-15 18:00:00 29 13 Oeste 25 Oeste 0 -- -- 20
2019-06-15 17:00:00 29.1 10 Oeste 23 Oeste 0 -- -- 19
2019-06-15 16:00:00 28.6 9 Oeste 27 Sudoeste 0 -- -- 19
2019-06-15 15:00:00 28.1 12 Sudoeste 29 Oeste 0 -- -- 20
2019-06-15 14:00:00 26.7 12 Oeste 36 Sur 0 -- -- 23
2019-06-15 13:00:00 25.9 9 Oeste 27 Oeste 0 -- -- 24
2019-06-15 12:00:00 24.5 13 Noroeste 31 Noroeste 0 -- -- 28
2019-06-15 11:00:00 22.8 11 Noroeste 26 Oeste 0 -- -- 32
2019-06-15 10:00:00 21.2 15 Oeste 28 Oeste 0 -- -- 33
2019-06-15 09:00:00 20.1 10 Oeste 26 Oeste 0 -- -- 37
2019-06-15 08:00:00 16.8 14 Noroeste 26 Oeste 0 -- -- 42
2019-06-15 07:00:00 15.2 11 Oeste 19 Noroeste 0 -- -- 44
2019-06-15 06:00:00 15.8 12 Oeste 24 Noroeste 0 -- -- 42
2019-06-15 05:00:00 16.4 11 Noroeste 21 Noroeste 0 -- -- 40
2019-06-15 04:00:00 17.3 9 Noroeste 20 Oeste 0 -- -- 38
2019-06-15 03:00:00 18 5 Noroeste 19 Noroeste 0 -- -- 36
2019-06-15 02:00:00 18.9 9 Noroeste 17 Noroeste 0 -- -- 36
2019-06-15 01:00:00 18.6 4 Norte 9 Oeste 0 -- -- 38
2019-06-15 00:00:00 18.9 3 Sudoeste 9 Noroeste 0 -- -- 39
2019-06-14 23:00:00 21.3 3 Noroeste 16 Oeste 0 -- -- 31
2019-06-14 22:00:00 24.3 8 Oeste 20 Oeste 0 -- -- 26
2019-06-14 21:00:00 26.8 15 Oeste 31 Sudoeste 0 -- -- 23
2019-06-14 20:00:00 28.6 12 Oeste 37 Sudoeste 0 -- -- 22
2019-06-14 19:00:00 29.2 18 Oeste 37 Oeste 0 -- -- 24
2019-06-14 18:00:00 29.4 18 Oeste 39 Sudoeste 0 -- -- 25
2019-06-14 17:00:00 29 19 Sudoeste 42 Oeste 0 -- -- 23
2019-06-14 16:00:00 28.6 21 Oeste 46 Sudoeste 0 -- -- 26
2019-06-14 15:00:00 28.5 14 Oeste 36 Oeste 0 -- -- 28
2019-06-14 14:00:00 26.7 15 Oeste 34 Oeste 0 -- -- 36
2019-06-14 13:00:00 25.4 11 Noroeste 25 Noroeste 0 -- -- 41
2019-06-14 12:00:00 22.1 12 Oeste 19 Oeste 0 -- -- 55
2019-06-14 11:00:00 18.3 12 Oeste 23 Oeste 0 -- -- 67
2019-06-14 10:00:00 18 13 Oeste 34 Oeste 0 -- -- 69
2019-06-14 09:00:00 18.5 13 Noroeste 26 Oeste 0 -- -- 71
2019-06-14 08:00:00 16.6 3 Sudoeste 17 Noroeste 0.2 -- -- 83
2019-06-14 07:00:00 15.6 5 Noroeste 13 Oeste 0 -- -- 82
2019-06-14 06:00:00 15.7 3 Oeste 8 Oeste 0 -- -- 81
2019-06-14 05:00:00 15.6 4 Noroeste 18 Noroeste 0 -- -- 80
2019-06-14 04:00:00 15.8 9 Oeste 17 Oeste 0 -- -- 79
2019-06-14 03:00:00 15.7 8 Oeste 20 Oeste 0 -- -- 80
2019-06-14 02:00:00 15.6 5 Oeste 9 Oeste 0 -- -- 81
2019-06-14 01:00:00 15.8 0 Calma 10 Sudeste 0 -- -- 79
2019-06-14 00:00:00 16.1 7 Sudeste 17 Este 0 -- -- 79
2019-06-13 23:00:00 16.5 10 Sudeste 17 Sudeste 0 -- -- 78
2019-06-13 22:00:00 16.9 9 Sudeste 24 Sudeste 0 -- -- 77
2019-06-13 21:00:00 18.4 15 Sudeste 26 Sudeste 0 -- -- 69
2019-06-13 20:00:00 20.7 14 Sudeste 26 Sudeste 0 -- -- 60
2019-06-13 19:00:00 21.6 13 Sudeste 30 Este 0 -- -- 58
2019-06-13 18:00:00 21.2 17 Sudeste 31 Sudeste 0 -- -- 59
2019-06-13 17:00:00 22.6 15 Sudeste 34 Sudeste 0 -- -- 58
2019-06-13 16:00:00 21.7 18 Sudeste 30 Sudeste 0 -- -- 58
2019-06-13 15:00:00 21.6 17 Sudeste 31 Este 0 -- -- 57
2019-06-13 14:00:00 20 14 Sudeste 27 Sur 0 -- -- 64
2019-06-13 13:00:00 21 13 Sudeste 24 Sudeste 0 -- -- 61
2019-06-13 12:00:00 19.6 5 Sudeste 15 Sudeste 0 -- -- 68
2019-06-13 11:00:00 17.8 4 Sur 10 Sur 0 -- -- 73
2019-06-13 10:00:00 16 3 Sur 6 Sur 0 -- -- 78
2019-06-13 09:00:00 15.1 0 Calma 5 Sur 0 -- -- 82
2019-06-13 08:00:00 14.1 0 Calma 5 Oeste 0 -- -- 87
2019-06-13 07:00:00 13.6 0 Calma 4 Noroeste 0 -- -- 89
2019-06-13 06:00:00 13.5 3 Oeste 6 Oeste 0 -- -- 89
2019-06-13 05:00:00 13.6 0 Calma 6 Sudoeste 0 -- -- 86
2019-06-13 04:00:00 14.5 4 Sudoeste 6 Oeste 0 -- -- 76
2019-06-13 03:00:00 14.6 3 Sudeste 6 Sudeste 0 -- -- 74
2019-06-13 02:00:00 14.7 2 Sudeste 6 Este 0 -- -- 73
2019-06-13 01:00:00 14.7 3 Sudeste 8 Este 0 -- -- 71
2019-06-13 00:00:00 14.7 4 Sudeste 11 Nordeste 0 -- -- 63
2019-06-12 23:00:00 14.6 8 Este 15 Este 0 -- -- 63
2019-06-12 22:00:00 14.7 9 Este 24 Este 0 -- -- 56
2019-06-12 21:00:00 16.1 11 Sudeste 34 Sudeste 0 -- -- 53
2019-06-12 20:00:00 17.6 19 Sudeste 39 Sudeste 0 -- -- 48
2019-06-12 19:00:00 18.8 21 Sudeste 39 Sudeste 0 -- -- 45
2019-06-12 18:00:00 19.8 21 Sudeste 36 Sudeste 0 -- -- 48
2019-06-12 17:00:00 21.2 21 Sudeste 37 Sudeste 0 -- -- 43
2019-06-12 16:00:00 21.5 22 Sudeste 33 Sudeste 0 -- -- 39
2019-06-12 15:00:00 21.1 17 Sudeste 31 Sudeste 0 -- -- 43
2019-06-12 14:00:00 21.2 14 Sudeste 27 Sudeste 0 -- -- 43
2019-06-12 13:00:00 20 13 Sudeste 24 Sudeste 0 -- -- 46
2019-06-12 12:00:00 18.3 10 Sudeste 22 Sudeste 0 -- -- 48
2019-06-12 11:00:00 17.5 7 Sudeste 14 Sudeste 0 -- -- 47
2019-06-12 10:00:00 16.4 3 Sudeste 6 Sur 0 -- -- 50
2019-06-12 09:00:00 14 0 Calma 6 Oeste 0 -- -- 50
2019-06-12 08:00:00 11.4 0 Calma 4 Norte 0 -- -- 61
2019-06-12 07:00:00 6 0 Calma 6 Norte 0 -- -- 81
2019-06-12 06:00:00 6.7 4 Nordeste 7 Nordeste 0 -- -- 78
2019-06-12 05:00:00 7.3 0 Calma 6 Sudeste 0 -- -- 77
2019-06-12 04:00:00 7.5 0 Calma 4 Norte 0 -- -- 80
2019-06-12 03:00:00 8.4 0 Calma 8 Este 0 -- -- 75
2019-06-12 02:00:00 9.5 3 Oeste 8 Nordeste 0 -- -- 67
2019-06-12 01:00:00 10.6 6 Noroeste 10 Noroeste 0 -- -- 64
2019-06-12 00:00:00 11.5 0 Calma 10 Este 0 -- -- 63
2019-06-11 23:00:00 13 6 Nordeste 15 Nordeste 0 -- -- 58
2019-06-11 22:00:00 14.1 6 Nordeste 12 Sur 0 -- -- 59
2019-06-11 21:00:00 17.7 4 Sur 11 Sur 0 -- -- 44
2019-06-11 20:00:00 18.6 7 Este 17 Noroeste 0 -- -- 42
2019-06-11 19:00:00 17.2 9 Noroeste 24 Oeste 0 -- -- 42
2019-06-11 18:00:00 16.5 10 Noroeste 36 Noroeste 0 -- -- 47
2019-06-11 17:00:00 16.7 16 Noroeste 27 Noroeste 0 -- -- 50
2019-06-11 16:00:00 18.5 11 Sudeste 26 Este 0 -- -- 54
2019-06-11 15:00:00 20.2 10 Este 20 Este 0 -- -- 50
2019-06-11 14:00:00 18.9 9 Sudeste 23 Sudeste 0 -- -- 58
2019-06-11 13:00:00 20.7 11 Sudeste 22 Sudeste 0 -- -- 57
2019-06-11 12:00:00 20.6 6 Sudeste 18 Sudeste 0 -- -- 56
2019-06-11 11:00:00 19.5 9 Sudeste 17 Sudeste 0 -- -- 62
2019-06-11 10:00:00 16.8 4 Sudeste 6 Sudeste 0 -- -- 70
2019-06-11 09:00:00 15 -- -- -- -- 0 -- -- 75
2019-06-11 08:00:00 13.5 0 Calma 3 Oeste 0 -- -- 84
2019-06-11 07:00:00 11.5 0 Calma 4 Nordeste 0 -- -- 91
2019-06-11 06:00:00 11.5 0 Calma 5 Oeste 0 -- -- 89
2019-06-11 05:00:00 12.4 3 Norte 5 Norte 0 -- -- 88
2019-06-11 04:00:00 13.2 0 Calma 4 Nordeste 0 -- -- 85
2019-06-11 03:00:00 13.8 3 Norte 5 Norte 0 -- -- 83
2019-06-11 02:00:00 13.8 0 Calma 6 Norte 0 -- -- 82
2019-06-11 01:00:00 14.5 2 Norte 5 Norte 0 -- -- 80
2019-06-11 00:00:00 15 3 Este 9 Sudeste 0 -- -- 77
2019-06-10 23:00:00 16.2 5 Sudeste 12 Sudeste 0 -- -- 76
2019-06-10 22:00:00 17.5 4 Este 16 Sudeste 0 -- -- 69
2019-06-10 21:00:00 19.3 11 Sudeste 26 Sudeste 0 -- -- 64
2019-06-10 20:00:00 21.3 14 Sudeste 31 Este 0 -- -- 62
2019-06-10 19:00:00 22.7 17 Sudeste 35 Sudeste 0 -- -- 57
2019-06-10 18:00:00 24.8 18 Sudeste 33 Sudeste 0 -- -- 49
2019-06-10 17:00:00 26 19 Sudeste 38 Sudeste 0 -- -- 44
2019-06-10 16:00:00 27.3 20 Sudeste 35 Sudeste 0 -- -- 35
2019-06-10 15:00:00 27.3 10 Sudeste 21 Sur 0 -- -- 27
2019-06-10 14:00:00 28.5 14 Sur 25 Sudeste 0 -- -- 26
2019-06-10 13:00:00 25.7 11 Sudeste 20 Sur 0 -- -- 33
2019-06-10 12:00:00 24.2 8 Sudeste 18 Sudeste 0 -- -- 36
2019-06-10 11:00:00 22 8 Sudeste 20 Sudeste 0 -- -- 42
2019-06-10 10:00:00 20.9 10 Sudeste 17 Sudeste 0 -- -- 42
2019-06-10 09:00:00 20.2 5 Oeste 9 Oeste 0 -- -- 45
2019-06-10 08:00:00 17.4 3 Este 9 Norte 0 -- -- 46
2019-06-10 07:00:00 14.7 3 Norte 15 Oeste 0 -- -- 45
2019-06-10 06:00:00 14.5 4 Noroeste 9 Oeste 0 -- -- 45
2019-06-10 05:00:00 15 4 Oeste 6 Oeste 0 -- -- 48
2019-06-10 04:00:00 14.5 0 Calma 6 Este 0 -- -- 55
2019-06-10 03:00:00 14.3 0 Calma 4 Sudoeste 0 -- -- 62
2019-06-10 02:00:00 15.3 0 Calma 5 Norte 0 -- -- 59
2019-06-10 01:00:00 15.5 0 Calma 4 Norte 0 -- -- 58
2019-06-10 00:00:00 16.3 0 Calma 4 Norte 0 -- -- 56
2019-06-09 23:00:00 17.7 4 Oeste 7 Oeste 0 -- -- 51
2019-06-09 22:00:00 18 0 Calma 11 Sudeste 0 -- -- 51
2019-06-09 21:00:00 20.8 6 Sudeste 19 Sudeste 0 -- -- 42
2019-06-09 20:00:00 23.5 12 Sudeste 25 Sudeste 0 -- -- 39
2019-06-09 19:00:00 24.6 14 Sudeste 28 Sudeste 0 -- -- 40
2019-06-09 18:00:00 25.2 18 Sudeste 31 Sur 0 -- -- 39
2019-06-09 17:00:00 25.6 14 Sudeste 28 Sudeste 0 -- -- 40
2019-06-09 16:00:00 25 17 Sudeste 29 Sur 0 -- -- 39
2019-06-09 15:00:00 23.4 15 Sudeste 27 Sudeste 0 -- -- 41
2019-06-09 14:00:00 21.9 12 Sudeste 18 Sudeste 0 -- -- 46
2019-06-09 13:00:00 21.8 0 Calma 5 Sudeste 0 -- -- 44
2019-06-09 12:00:00 20.8 0 Calma 13 Sur 0 -- -- 45
2019-06-09 11:00:00 18.4 5 Sudeste 15 Oeste 0 -- -- 58
2019-06-09 10:00:00 17.1 4 Noroeste 12 Oeste 0 -- -- 61
2019-06-09 09:00:00 15.9 5 Oeste 10 Oeste 0 -- -- 65
2019-06-09 08:00:00 14 0 Calma 5 Oeste 0 -- -- 74
2019-06-09 07:00:00 13.2 0 Calma 7 Sudoeste 0 -- -- 77
2019-06-09 06:00:00 14 4 Sudoeste 15 Noroeste 0 -- -- 75
2019-06-09 05:00:00 14.1 10 Noroeste 18 Noroeste 0 -- -- 75
2019-06-09 04:00:00 13.4 2 Oeste 5 Este 0 -- -- 81
2019-06-09 03:00:00 13.7 0 Calma 8 Este 0 -- -- 81
2019-06-09 02:00:00 13.8 0 Calma 5 Norte 0 -- -- 80
2019-06-09 01:00:00 14.7 3 Norte 8 Noroeste 0 -- -- 78
2019-06-09 00:00:00 14.7 3 Noroeste 5 Sudeste 0 -- -- 79
2019-06-08 23:00:00 15 4 Sudeste 13 Sudeste 0 -- -- 77
2019-06-08 22:00:00 15.8 9 Sudeste 20 Sudeste 0 -- -- 72
2019-06-08 21:00:00 17.2 13 Sudeste 26 Sudeste 0 -- -- 64
2019-06-08 20:00:00 18.6 16 Sudeste 29 Sudeste 0 -- -- 58
2019-06-08 19:00:00 20 18 Sudeste 34 Sudeste 0 -- -- 53
2019-06-08 18:00:00 21.3 22 Sudeste 37 Sudeste 0 -- -- 49
2019-06-08 17:00:00 21.8 20 Sudeste 40 Sudeste 0 -- -- 47
2019-06-08 16:00:00 22.1 24 Sudeste 40 Sur 0 -- -- 46
2019-06-08 15:00:00 21.9 23 Sudeste 45 Sudeste 0 -- -- 48
2019-06-08 14:00:00 21.2 26 Sudeste 46 Sudeste 0 -- -- 53
2019-06-08 13:00:00 21 22 Sudeste 37 Sudeste 0 -- -- 53
2019-06-08 12:00:00 20.4 19 Sudeste 35 Sur 0 -- -- 55
2019-06-08 11:00:00 19.1 14 Sudeste 25 Sudeste 0 -- -- 63
2019-06-08 10:00:00 17.3 14 Sudeste 24 Sudeste 0 -- -- 66
2019-06-08 09:00:00 17.5 5 Este 10 Este 0 -- -- 51
2019-06-08 08:00:00 15.2 2 Este 6 Oeste 0 -- -- 57
2019-06-08 07:00:00 10.7 0 Calma 6 Oeste 0 -- -- 72
2019-06-08 06:00:00 11 0 Calma 7 Oeste 0 -- -- 67
2019-06-08 05:00:00 11.7 3 Oeste 5 Noroeste 0 -- -- 67
2019-06-08 04:00:00 12.2 0 Calma 4 Norte 0 -- -- 70
2019-06-08 03:00:00 13.1 0 Calma 4 Sudoeste 0 -- -- 68
2019-06-08 02:00:00 13.7 0 Calma 8 Norte 0 -- -- 63
2019-06-08 01:00:00 15.1 6 Nordeste 12 Nordeste 0 -- -- 44
2019-06-08 00:00:00 16 9 Nordeste 12 Nordeste 0 -- -- 33
2019-06-07 23:00:00 17.1 4 Noroeste 12 Nordeste 0 -- -- 30
2019-06-07 22:00:00 19.7 6 Noroeste 10 Norte 0 -- -- 24
2019-06-07 21:00:00 23.9 6 Oeste 21 Sudoeste 0 -- -- 21
2019-06-07 20:00:00 25.7 13 Oeste 25 Oeste 0 -- -- 18
2019-06-07 19:00:00 26.4 12 Oeste 29 Sudoeste 0 -- -- 17
2019-06-07 18:00:00 26.3 17 Oeste 37 Oeste 0 -- -- 16
2019-06-07 17:00:00 26 19 Oeste 37 Sudoeste 0 -- -- 17
2019-06-07 16:00:00 25.1 16 Oeste 37 Oeste 0 -- -- 23
2019-06-07 15:00:00 24.6 14 Noroeste 36 Oeste 0 -- -- 28
2019-06-07 14:00:00 23.7 15 Oeste 37 Sudoeste 0 -- -- 33
2019-06-07 13:00:00 22.4 21 Oeste 43 Noroeste 0 -- -- 37
2019-06-07 12:00:00 22.2 20 Oeste 53 Sudoeste 0 -- -- 41
2019-06-07 11:00:00 21 19 Oeste 45 Oeste 0 -- -- 46
2019-06-07 10:00:00 19.4 20 Oeste 33 Sudoeste 0 -- -- 52
2019-06-07 09:00:00 17.9 10 Oeste 19 Oeste 0 -- -- 50
2019-06-07 08:00:00 14.8 3 Sudoeste 8 Oeste 0 -- -- 78
2019-06-07 07:00:00 10.9 0 Calma 6 Norte 0 -- -- 91
2019-06-07 06:00:00 11.3 3 Nordeste 6 Nordeste 0 -- -- 88
2019-06-07 05:00:00 12.2 4 Nordeste 9 Nordeste 0 -- -- 84
2019-06-07 04:00:00 13.2 3 Norte 8 Nordeste 0 -- -- 87
2019-06-07 03:00:00 13.9 2 Nordeste 3 Norte 0 -- -- 89
2019-06-07 02:00:00 14.2 0 Calma 5 Sudeste 0 -- -- 91
2019-06-07 01:00:00 14.6 4 Sudeste 9 Sudeste 0 -- -- 89
2019-06-07 00:00:00 15.2 5 Sudeste 19 Este 0 -- -- 87
2019-06-06 23:00:00 15.8 9 Este 24 Sudeste 0 -- -- 82
2019-06-06 22:00:00 16.7 13 Sudeste 26 Sudeste 0 -- -- 73
2019-06-06 21:00:00 18.4 12 Sudeste 29 Sudeste 0 -- -- 59
2019-06-06 20:00:00 20.2 18 Sudeste 40 Este 0 -- -- 51
2019-06-06 19:00:00 21.5 17 Sudeste 39 Este 0 -- -- 52
2019-06-06 18:00:00 22.1 22 Sudeste 40 Sudeste 0 -- -- 46
2019-06-06 17:00:00 22.7 23 Sudeste 40 Sudeste 0 -- -- 45
2019-06-06 16:00:00 22.8 22 Sudeste 40 Sudeste 0 -- -- 46
2019-06-06 15:00:00 22.9 19 Sudeste 37 Sudeste 0 -- -- 46
2019-06-06 14:00:00 21.8 21 Sudeste 36 Sudeste 0 -- -- 52
2019-06-06 13:00:00 21 14 Sudeste 31 Este 0 -- -- 53
2019-06-06 12:00:00 21.2 15 Sudeste 27 Sudeste 0 -- -- 48
2019-06-06 11:00:00 20 13 Sudeste 21 Sudeste 0 -- -- 53
2019-06-06 10:00:00 19.2 7 Sudeste 12 Sudeste 0 -- -- 49
2019-06-06 09:00:00 17.2 2 Sudeste 9 Oeste 0 -- -- 52
2019-06-06 08:00:00 12.8 6 Oeste 10 Noroeste 0 -- -- 63
2019-06-06 07:00:00 9.6 5 Oeste 10 Oeste 0 -- -- 71
2019-06-06 06:00:00 9.9 4 Oeste 8 Oeste 0 -- -- 71
2019-06-06 05:00:00 10.4 2 Oeste 8 Oeste 0 -- -- 70
2019-06-06 04:00:00 10.7 4 Oeste 11 Oeste 0 -- -- 67
2019-06-06 03:00:00 11.5 0 Calma 6 Oeste 0 -- -- 63
2019-06-06 02:00:00 12.6 0 Calma 9 Nordeste 0 -- -- 61
2019-06-06 01:00:00 13.8 2 Nordeste 9 Nordeste 0 -- -- 57
2019-06-06 00:00:00 15 4 Nordeste 10 Nordeste 0 -- -- 48
2019-06-05 23:00:00 16.1 2 Noroeste 9 Noroeste 0 -- -- 39
2019-06-05 22:00:00 18.9 7 Noroeste 12 Noroeste 0 -- -- 30
2019-06-05 21:00:00 21.5 8 Oeste 24 Oeste 0 -- -- 27
2019-06-05 20:00:00 21.8 10 Oeste 32 Oeste 0 -- -- 26
2019-06-05 19:00:00 22.1 16 Noroeste 35 Noroeste 0 -- -- 26
2019-06-05 18:00:00 23.3 19 Noroeste 36 Noroeste 0 -- -- 26
2019-06-05 17:00:00 24.2 19 Oeste 45 Oeste 0 -- -- 23
2019-06-05 16:00:00 24.4 21 Oeste 43 Oeste 0 -- -- 22
2019-06-05 15:00:00 23.7 19 Oeste 54 Oeste 0 -- -- 26
2019-06-05 14:00:00 22.4 24 Oeste 53 Noroeste 0 -- -- 28
2019-06-05 13:00:00 21.2 29 Oeste 64 Oeste 0 -- -- 30
2019-06-05 12:00:00 20.4 24 Oeste 46 Sudoeste 0 -- -- 33
2019-06-05 11:00:00 20 26 Oeste 59 Oeste 0 -- -- 32
2019-06-05 10:00:00 20.3 22 Oeste 46 Oeste 0 -- -- 41
2019-06-05 09:00:00 19.6 22 Oeste 42 Oeste 0 -- -- 54
2019-06-05 08:00:00 18 14 Oeste 30 Oeste 0 -- -- 63
2019-06-05 07:00:00 13.1 2 Oeste 9 Oeste 0 -- -- 89
2019-06-05 06:00:00 13 0 Calma 5 Nordeste 0 -- -- 89
2019-06-05 05:00:00 13.5 0 Calma 4 Norte 0 -- -- 88
2019-06-05 04:00:00 14.2 0 Calma 5 Nordeste 0 -- -- 87
2019-06-05 03:00:00 14.8 0 Calma 4 Oeste 0 -- -- 86
2019-06-05 02:00:00 15.6 0 Calma 5 Oeste 0 -- -- 86
2019-06-05 01:00:00 16.4 4 Oeste 8 Sudeste 0 -- -- 86
2019-06-05 00:00:00 17.2 5 Sudeste 9 Sudeste 0 -- -- 83
2019-06-04 23:00:00 18.7 2 Sudeste 8 Sudeste 0 -- -- 70
2019-06-04 22:00:00 20.3 4 Sudeste 11 Sudeste 0 -- -- 59
2019-06-04 21:00:00 22.3 8 Sudeste 20 Sudeste 0 -- -- 50
2019-06-04 20:00:00 24.4 8 Sudeste 27 Sudeste 0 -- -- 46
2019-06-04 19:00:00 26.3 16 Sudeste 30 Sudeste 0 -- -- 39
2019-06-04 18:00:00 27.4 19 Sudeste 35 Sur 0 -- -- 46
2019-06-04 17:00:00 28.1 20 Sudeste 35 Este 0 -- -- 46
2019-06-04 16:00:00 29.4 19 Sudeste 35 Sudeste 0 -- -- 42
2019-06-04 15:00:00 29.3 17 Sudeste 29 Sudeste 0 -- -- 37
2019-06-04 14:00:00 28 18 Sudeste 28 Sudeste 0 -- -- 39
2019-06-04 13:00:00 27.7 15 Sudeste 25 Sudeste 0 -- -- 37
2019-06-04 12:00:00 26.8 13 Sudeste 21 Sudeste 0 -- -- 37
2019-06-04 11:00:00 25.8 6 Sudeste 12 Sudeste 0 -- -- 38
2019-06-04 10:00:00 23.2 4 Sur 8 Sur 0 -- -- 43
2019-06-04 09:00:00 20.5 3 Sudoeste 5 Sur 0 -- -- 47
2019-06-04 08:00:00 16.8 2 Oeste 7 Oeste 0 -- -- 57
2019-06-04 07:00:00 12.5 2 Oeste 4 Oeste 0 -- -- 71
2019-06-04 06:00:00 12.8 3 Norte 5 Oeste 0 -- -- 70
2019-06-04 05:00:00 13.1 3 Norte 4 Oeste 0 -- -- 72
2019-06-04 04:00:00 13.7 2 Norte 6 Noroeste 0 -- -- 70
2019-06-04 03:00:00 14.3 3 Nordeste 5 Nordeste 0 -- -- 70
2019-06-04 02:00:00 14.9 0 Calma 5 Nordeste 0 -- -- 69
2019-06-04 01:00:00 15.6 0 Calma 9 Este 0 -- -- 64
2019-06-04 00:00:00 16.8 3 Nordeste 6 Nordeste 0 -- -- 64
2019-06-03 23:00:00 18.1 4 Norte 7 Norte 0 -- -- 60
2019-06-03 22:00:00 19.1 2 Norte 12 Sudeste 0 -- -- 58
2019-06-03 21:00:00 21.1 10 Sudeste 20 Sudeste 0 -- -- 51
2019-06-03 20:00:00 23.1 14 Sudeste 31 Sudeste 0 -- -- 46
2019-06-03 19:00:00 24.5 19 Sudeste 34 Sudeste 0 -- -- 39
2019-06-03 18:00:00 26.4 21 Sudeste 37 Sudeste 0 -- -- 42
2019-06-03 17:00:00 27.8 17 Sudeste 33 Sudeste 0 -- -- 38
2019-06-03 16:00:00 29.5 18 Sudeste 31 Sudeste 0 -- -- 35
2019-06-03 15:00:00 29 18 Sudeste 30 Sudeste 0 -- -- 35
2019-06-03 14:00:00 28.2 17 Sudeste 28 Sur 0 -- -- 32
2019-06-03 13:00:00 27.8 14 Sudeste 23 Sudeste 0 -- -- 30
2019-06-03 12:00:00 26.8 9 Sudeste 15 Sur 0 -- -- 29
2019-06-03 11:00:00 24.2 7 Sudeste 13 Sudeste 0 -- -- 34
2019-06-03 10:00:00 23.4 3 Sudeste 6 Sur 0 -- -- 37
2019-06-03 09:00:00 20.4 3 Sudeste 10 Oeste 0 -- -- 44
2019-06-03 08:00:00 17.1 0 Calma 6 Sudoeste 0 -- -- 50
2019-06-03 07:00:00 12.6 5 Noroeste 11 Oeste 0 -- -- 62
2019-06-03 06:00:00 13.2 0 Calma 19 Noroeste 0 -- -- 56
2019-06-03 05:00:00 12.7 2 Noroeste 6 Oeste 0 -- -- 61
2019-06-03 04:00:00 13 2 Noroeste 4 Oeste 0 -- -- 59
2019-06-03 03:00:00 13.6 2 Oeste 4 Norte 0 -- -- 59
2019-06-03 02:00:00 13.9 0 Calma 8 Oeste 0 -- -- 60
2019-06-03 01:00:00 14.9 0 Calma 7 Nordeste 0 -- -- 55
2019-06-03 00:00:00 15.9 3 Norte 6 Norte 0 -- -- 52
2019-06-02 23:00:00 17.2 4 Norte 9 Nordeste 0 -- -- 48
2019-06-02 22:00:00 18.5 0 Calma 14 Sudeste 0 -- -- 45
2019-06-02 21:00:00 20.9 10 Sudeste 23 Sudeste 0 -- -- 39
2019-06-02 20:00:00 23.4 15 Sudeste 28 Sudeste 0 -- -- 33
2019-06-02 19:00:00 24.8 18 Sudeste 32 Sudeste 0 -- -- 32
2019-06-02 18:00:00 26 18 Sudeste 33 Sudeste 0 -- -- 33
2019-06-02 17:00:00 27 22 Sudeste 36 Sudeste 0 -- -- 32
2019-06-02 16:00:00 27.7 22 Sudeste 36 Sudeste 0 -- -- 31
2019-06-02 15:00:00 28.1 18 Sudeste 32 Sudeste 0 -- -- 28
2019-06-02 14:00:00 27.5 18 Sudeste 29 Sur 0 -- -- 29
2019-06-02 13:00:00 27.2 16 Sudeste 28 Sudeste 0 -- -- 30
2019-06-02 12:00:00 26 12 Sudeste 21 Sudeste 0 -- -- 31
2019-06-02 11:00:00 25.4 5 Sur 9 Sur 0 -- -- 33
2019-06-02 10:00:00 23.3 3 Sudeste 9 Oeste 0 -- -- 38
2019-06-02 09:00:00 19.4 2 Noroeste 14 Noroeste 0 -- -- 44
2019-06-02 08:00:00 15.7 3 Noroeste 18 Oeste 0 -- -- 50
2019-06-02 07:00:00 11.4 0 Calma 11 Oeste 0 -- -- 62
2019-06-02 06:00:00 11.4 2 Noroeste 11 Noroeste 0 -- -- 62
2019-06-02 05:00:00 11.5 0 Calma 5 Oeste 0 -- -- 60
2019-06-02 04:00:00 11.9 2 Noroeste 5 Oeste 0 -- -- 61
2019-06-02 03:00:00 12.5 2 Noroeste 6 Norte 0 -- -- 57
2019-06-02 02:00:00 12.8 0 Calma 4 Norte 0 -- -- 57
2019-06-02 01:00:00 14.1 2 Norte 6 Este 0 -- -- 52
2019-06-02 00:00:00 15.6 5 Nordeste 12 Nordeste 0 -- -- 47
2019-06-01 23:00:00 16.7 4 Nordeste 10 Nordeste 0 -- -- 45
2019-06-01 22:00:00 18.4 5 Nordeste 19 Sudeste 0 -- -- 41
2019-06-01 21:00:00 20.5 10 Sudeste 25 Sudeste 0 -- -- 39
2019-06-01 20:00:00 22.9 14 Sudeste 29 Sudeste 0 -- -- 34
2019-06-01 19:00:00 24.3 18 Sudeste 35 Sudeste 0 -- -- 34
2019-06-01 18:00:00 25.3 18 Sudeste 36 Sudeste 0 -- -- 34
2019-06-01 17:00:00 26.1 18 Sudeste 38 Este 0 -- -- 35
2019-06-01 16:00:00 26.9 20 Sudeste 41 Sudeste 0 -- -- 37
2019-06-01 15:00:00 27 20 Sudeste 33 Sudeste 0 -- -- 33
2019-06-01 14:00:00 27.1 15 Sudeste 27 Sudeste 0 -- -- 32
2019-06-01 13:00:00 26.2 15 Sudeste 24 Sudeste 0 -- -- 32
2019-06-01 12:00:00 26.2 12 Sudeste 21 Sur 0 -- -- 28
2019-06-01 11:00:00 24.8 5 Sudeste 9 Sudeste 0 -- -- 38
2019-06-01 10:00:00 22.7 2 Sur 8 Sudoeste 0 -- -- 43
2019-06-01 09:00:00 17.6 5 Oeste 9 Oeste 0 -- -- 54
2019-06-01 08:00:00 14.8 3 Noroeste 9 Oeste 0 -- -- 63
2019-06-01 07:00:00 10.7 4 Noroeste 6 Oeste 0 -- -- 78
2019-06-01 06:00:00 10.7 2 Oeste 5 Noroeste 0 -- -- 78
2019-06-01 05:00:00 11.1 3 Norte 5 Noroeste 0 -- -- 79
2019-06-01 04:00:00 11.4 0 Calma 6 Sudoeste 0 -- -- 78
2019-06-01 03:00:00 11.6 0 Calma 4 Norte 0 -- -- 79
2019-06-01 02:00:00 12.7 0 Calma 5 Norte 0 -- -- 74
2019-06-01 01:00:00 13.4 0 Calma 6 Norte 0 -- -- 71
2019-06-01 00:00:00 14.8 4 Norte 9 Este 0 -- -- 65
2019-05-31 23:00:00 15.8 3 Este 12 Nordeste 0 -- -- 61
2019-05-31 22:00:00 17.2 6 Este 18 Este 0 -- -- 57
2019-05-31 21:00:00 19.2 10 Sudeste 24 Sudeste 0 -- -- 51
2019-05-31 20:00:00 21.2 17 Sudeste 30 Sudeste 0 -- -- 46
2019-05-31 19:00:00 22.5 20 Sudeste 36 Sudeste 0 -- -- 45
2019-05-31 18:00:00 23.8 18 Sudeste 41 Sudeste 0 -- -- 42
2019-05-31 17:00:00 25.1 19 Sudeste 39 Sudeste 0 -- -- 39
2019-05-31 16:00:00 26.1 20 Sudeste 36 Sudeste 0 -- -- 36
2019-05-31 15:00:00 26.1 18 Sudeste 31 Sur 0 -- -- 34
2019-05-31 14:00:00 25.4 16 Sudeste 30 Sur 0 -- -- 36
2019-05-31 13:00:00 24.5 17 Sudeste 25 Sudeste 0 -- -- 35
2019-05-31 12:00:00 23.7 13 Sudeste 21 Sudeste 0 -- -- 36
2019-05-31 11:00:00 22.5 6 Sudeste 13 Sudeste 0 -- -- 39
2019-05-31 10:00:00 20.8 3 Este 7 Sudeste 0 -- -- 41
2019-05-31 09:00:00 18.4 2 Este 6 Oeste 0 -- -- 48
2019-05-31 08:00:00 13.6 4 Oeste 8 Oeste 0 -- -- 60
2019-05-31 07:00:00 10.3 3 Oeste 7 Oeste 0 -- -- 73
2019-05-31 06:00:00 10.3 0 Calma 5 Oeste 0 -- -- 75
2019-05-31 05:00:00 10.7 0 Calma 8 Noroeste 0 -- -- 74
2019-05-31 04:00:00 11.4 0 Calma 7 Norte 0 -- -- 74
2019-05-31 03:00:00 12 4 Norte 6 Nordeste 0 -- -- 75
2019-05-31 02:00:00 12.5 0 Calma 10 Nordeste 0 -- -- 74
2019-05-31 01:00:00 13.5 2 Norte 6 Nordeste 0 -- -- 70
2019-05-31 00:00:00 14.9 4 Norte 7 Norte 0 -- -- 66
2019-05-30 23:00:00 15.9 5 Nordeste 10 Este 0 -- -- 62
2019-05-30 22:00:00 17.4 2 Sudeste 15 Sudeste 0 -- -- 58
2019-05-30 21:00:00 19.8 9 Sudeste 21 Sudeste 0 -- -- 50
2019-05-30 20:00:00 21.9 13 Sudeste 27 Sudeste 0 -- -- 43
2019-05-30 19:00:00 23.4 15 Sudeste 31 Sudeste 0 -- -- 39
2019-05-30 18:00:00 24.5 17 Sudeste 34 Sudeste 0 -- -- 38
2019-05-30 17:00:00 25.4 17 Sudeste 30 Sur 0 -- -- 35
2019-05-30 16:00:00 25.9 17 Sudeste 30 Este 0 -- -- 33
2019-05-30 15:00:00 25.1 15 Sudeste 24 Sur 0 -- -- 34
2019-05-30 14:00:00 24.5 14 Sudeste 24 Sudeste 0 -- -- 37
2019-05-30 13:00:00 23.5 6 Sur 21 Sudeste 0 -- -- 36
2019-05-30 12:00:00 22.6 6 Sur 19 Este 0 -- -- 38
2019-05-30 11:00:00 21 6 Sur 9 Sur 0 -- -- 40
2019-05-30 10:00:00 19.7 3 Sudeste 7 Nordeste 0 -- -- 45
2019-05-30 09:00:00 18.4 0 Calma 12 Oeste 0 -- -- 48
2019-05-30 08:00:00 13.4 5 Noroeste 12 Noroeste 0 -- -- 61
2019-05-30 07:00:00 9.1 2 Nordeste 5 Noroeste 0 -- -- 74
2019-05-30 06:00:00 9 0 Calma 4 Norte 0 -- -- 74
2019-05-30 05:00:00 9.2 -- -- -- -- 0 -- -- 75
2019-05-30 04:00:00 9.5 0 Calma 4 Noroeste 0 -- -- 74
2019-05-30 03:00:00 10.5 2 Norte 10 Nordeste 0 -- -- 68
2019-05-30 02:00:00 10.9 4 Noroeste 9 Norte 0 -- -- 70
2019-05-30 01:00:00 11.9 4 Norte 8 Norte 0 -- -- 65
2019-05-30 00:00:00 13.2 5 Norte 8 Norte 0 -- -- 61
2019-05-29 23:00:00 14.2 3 Este 10 Nordeste 0 -- -- 58
2019-05-29 22:00:00 15.5 6 Este 16 Este 0 -- -- 53
2019-05-29 21:00:00 18 12 Este 23 Sudeste 0 -- -- 45
2019-05-29 20:00:00 20.8 13 Sudeste 25 Sudeste 0 -- -- 40
2019-05-29 19:00:00 22 13 Sudeste 25 Sur 0 -- -- 38
2019-05-29 18:00:00 22.3 18 Sudeste 31 Sudeste 0 -- -- 36
2019-05-29 17:00:00 24 17 Sudeste 28 Sur 0 -- -- 32
2019-05-29 16:00:00 25 9 Sur 23 Nordeste 0 -- -- 27
2019-05-29 15:00:00 24.1 12 Noroeste 32 Nordeste 0 -- -- 28
2019-05-29 14:00:00 23.1 5 Sudeste 25 Este 0 -- -- 30
2019-05-29 13:00:00 21.8 7 Noroeste 22 Nordeste 0 -- -- 30
2019-05-29 12:00:00 20.8 6 Sur 20 Oeste 0 -- -- 32
2019-05-29 11:00:00 18.9 7 Sudoeste 20 Sudoeste 0 -- -- 34
2019-05-29 10:00:00 19.2 4 Sudeste 11 Oeste 0 -- -- 34
2019-05-29 09:00:00 17.2 2 Oeste 10 Norte 0 -- -- 41
2019-05-29 08:00:00 13.8 2 Nordeste 9 Norte 0 -- -- 50
2019-05-29 07:00:00 9.3 5 Nordeste 11 Nordeste 0 -- -- 65
2019-05-29 06:00:00 9.9 3 Norte 18 Noroeste 0 -- -- 65
2019-05-29 05:00:00 10.4 5 Norte 9 Norte 0 -- -- 65
2019-05-29 04:00:00 12 4 Noroeste 19 Oeste 0 -- -- 59
2019-05-29 03:00:00 13.5 9 Oeste 24 Noroeste 0 -- -- 51
2019-05-29 02:00:00 14.2 10 Oeste 18 Oeste 0 -- -- 50
2019-05-29 01:00:00 14.8 12 Noroeste 25 Noroeste 0 -- -- 50
2019-05-29 00:00:00 13.9 5 Nordeste 9 Este 0 -- -- 75
2019-05-28 23:00:00 14.8 2 Norte 7 Norte 0 -- -- 72
2019-05-28 22:00:00 16.1 0 Calma 15 Sudeste 0 -- -- 66
2019-05-28 21:00:00 18.2 11 Sudeste 23 Sudeste 0 -- -- 61
2019-05-28 20:00:00 20.7 12 Sudeste 28 Sudeste 0 -- -- 54
2019-05-28 19:00:00 22 15 Sudeste 28 Sudeste 0 -- -- 52
2019-05-28 18:00:00 23.3 15 Sudeste 31 Sudeste 0 -- -- 49
2019-05-28 17:00:00 23.9 18 Sudeste 35 Sudeste 0 -- -- 49
2019-05-28 16:00:00 25.4 18 Sudeste 30 Sudeste 0 -- -- 46
2019-05-28 15:00:00 26.8 8 Norte 25 Noroeste 0 -- -- 27
2019-05-28 14:00:00 25.5 11 Noroeste 23 Oeste 0 -- -- 30
2019-05-28 13:00:00 24.2 10 Noroeste 26 Oeste 0 -- -- 26
2019-05-28 12:00:00 22.1 14 Oeste 28 Oeste 0 -- -- 38
2019-05-28 11:00:00 20.7 17 Oeste 26 Oeste 0 -- -- 42
2019-05-28 10:00:00 19 12 Oeste 21 Sudoeste 0 -- -- 49
2019-05-28 09:00:00 16.9 11 Oeste 22 Oeste 0 -- -- 59
2019-05-28 08:00:00 15.4 12 Oeste 26 Oeste 0 -- -- 65
2019-05-28 07:00:00 14.5 14 Oeste 28 Noroeste 0 -- -- 69
2019-05-28 06:00:00 13.4 6 Noroeste 19 Oeste 0 -- -- 76
2019-05-28 05:00:00 13.2 4 Norte 14 Noroeste 0 -- -- 78
2019-05-28 04:00:00 13.7 3 Norte 7 Norte 0 -- -- 77
2019-05-28 03:00:00 13.6 0 Calma 6 Norte 0 -- -- 81
2019-05-28 02:00:00 13.8 0 Calma 6 Norte 0 -- -- 81
2019-05-28 01:00:00 14.6 2 Noroeste 8 Nordeste 0 -- -- 78
2019-05-28 00:00:00 15.2 3 Nordeste 7 Este 0 -- -- 75
2019-05-27 23:00:00 16.3 3 Noroeste 8 Nordeste 0 -- -- 72
2019-05-27 22:00:00 17.3 4 Nordeste 10 Sudeste 0 -- -- 68
2019-05-27 21:00:00 19 4 Sudeste 16 Sudeste 0 -- -- 62
2019-05-27 20:00:00 20.6 12 Sudeste 21 Sudeste 0 -- -- 57
2019-05-27 19:00:00 21.2 12 Sudeste 24 Sudeste 0 -- -- 56
2019-05-27 18:00:00 22.7 15 Sudeste 29 Sudeste 0 -- -- 52
2019-05-27 17:00:00 23.2 16 Sudeste 31 Sudeste 0 -- -- 51
2019-05-27 16:00:00 25.7 17 Sudeste 33 Sudeste 0 -- -- 43
2019-05-27 15:00:00 26 18 Sudeste 31 Sur 0 -- -- 41
2019-05-27 14:00:00 25.9 14 Sudeste 27 Sudeste 0 -- -- 40
2019-05-27 13:00:00 26 13 Sudeste 26 Sudeste 0 -- -- 39
2019-05-27 12:00:00 25 7 Sudoeste 14 Sudoeste 0 -- -- 38
2019-05-27 11:00:00 22.9 7 Sudoeste 16 Oeste 0 -- -- 40
2019-05-27 10:00:00 21.1 5 Sudoeste 9 Oeste 0 -- -- 45
2019-05-27 09:00:00 18 4 Nordeste 9 Nordeste 0 -- -- 55
2019-05-27 08:00:00 15.3 0 Calma 18 Oeste 0 -- -- 62
2019-05-27 07:00:00 10.7 4 Oeste 18 Oeste 0 -- -- 77
2019-05-27 06:00:00 11 5 Noroeste 9 Noroeste 0 -- -- 78
2019-05-27 05:00:00 11.2 4 Noroeste 9 Norte 0 -- -- 78
2019-05-27 04:00:00 11.3 5 Norte 9 Norte 0 -- -- 79
2019-05-27 03:00:00 11.6 4 Norte 7 Nordeste 0 -- -- 80
2019-05-27 02:00:00 12.1 3 Norte 9 Norte 0 -- -- 81
2019-05-27 01:00:00 12.9 2 Sudoeste 7 Norte 0 -- -- 78
2019-05-27 00:00:00 13.7 0 Calma 8 Norte 0 -- -- 75
2019-05-26 23:00:00 15 3 Norte 9 Norte 0 -- -- 71
2019-05-26 22:00:00 16.2 3 Nordeste 17 Sudeste 0 -- -- 67
2019-05-26 21:00:00 18.7 9 Sudeste 20 Sudeste 0 -- -- 57
2019-05-26 20:00:00 20.8 12 Sudeste 24 Sudeste 0 -- -- 51
2019-05-26 19:00:00 21.8 15 Sudeste 28 Sudeste 0 -- -- 50
2019-05-26 18:00:00 22.9 14 Sudeste 31 Sudeste 0 -- -- 45
2019-05-26 17:00:00 23.4 15 Sudeste 27 Sudeste 0 -- -- 41
2019-05-26 16:00:00 24.8 6 Sudeste 18 Sur 0 -- -- 34
2019-05-26 15:00:00 23.3 6 Sur 19 Sudeste 0 -- -- 39
2019-05-26 14:00:00 22.5 5 Sudoeste 15 Sudoeste 0 -- -- 42
2019-05-26 13:00:00 20.9 6 Sudoeste 18 Oeste 0 -- -- 42
2019-05-26 12:00:00 19 13 Sudoeste 31 Oeste 0 -- -- 44
2019-05-26 11:00:00 17.2 17 Oeste 31 Oeste 0 -- -- 51
2019-05-26 10:00:00 16.3 16 Oeste 30 Oeste 0 -- -- 53
2019-05-26 09:00:00 15.2 10 Oeste 21 Oeste 0 -- -- 57
2019-05-26 08:00:00 13.2 11 Noroeste 22 Noroeste 0 -- -- 60
2019-05-26 07:00:00 11.5 14 Oeste 24 Noroeste 0 -- -- 67
2019-05-26 06:00:00 11.7 12 Noroeste 22 Noroeste 0 -- -- 67
2019-05-26 05:00:00 12.3 12 Noroeste 23 Oeste 0 -- -- 66
2019-05-26 04:00:00 13 4 Oeste 21 Oeste 0 -- -- 67
2019-05-26 03:00:00 13.6 14 Noroeste 26 Oeste 0 -- -- 67
2019-05-26 02:00:00 13.6 11 Oeste 18 Noroeste 0 -- -- 74
2019-05-26 01:00:00 12 3 Nordeste 8 Norte 0 -- -- 87
2019-05-26 00:00:00 13.1 4 Norte 8 Norte 0 -- -- 85
2019-05-25 23:00:00 14 0 Calma 7 Sur 0 -- -- 81
2019-05-25 22:00:00 16 3 Sudeste 10 Sudeste 0 -- -- 72
2019-05-25 21:00:00 18.4 6 Sur 13 Sudeste 0 -- -- 65
2019-05-25 20:00:00 18.9 6 Sudeste 14 Sudeste 0 -- -- 64
2019-05-25 19:00:00 19.5 7 Sudeste 14 Sudeste 0 -- -- 59
2019-05-25 18:00:00 19.6 9 Sudeste 15 Sudeste 0 -- -- 58
2019-05-25 17:00:00 19.9 6 Sudeste 18 Sudeste 0 -- -- 58
2019-05-25 16:00:00 19.5 12 Sudeste 22 Sudeste 0 -- -- 57
2019-05-25 15:00:00 20.5 6 Oeste 13 Sudeste 0 -- -- 47
2019-05-25 14:00:00 21 7 Sudoeste 24 Oeste 0 -- -- 49
2019-05-25 13:00:00 20.1 13 Oeste 24 Oeste 0 -- -- 52
2019-05-25 12:00:00 17.8 13 Oeste 21 Oeste 0 -- -- 56
2019-05-25 11:00:00 17 8 Oeste 22 Oeste 0 -- -- 59
2019-05-25 10:00:00 15.5 11 Oeste 21 Oeste 0 -- -- 64
2019-05-25 09:00:00 16 11 Oeste 19 Noroeste 0 -- -- 62
2019-05-25 08:00:00 13.4 11 Noroeste 19 Noroeste 0 -- -- 69
2019-05-25 07:00:00 13 9 Noroeste 17 Noroeste 0 -- -- 72
2019-05-25 06:00:00 12.9 9 Noroeste 17 Noroeste 0 -- -- 76
2019-05-25 05:00:00 13.5 8 Noroeste 15 Oeste 0 -- -- 73
2019-05-25 04:00:00 13.5 8 Oeste 19 Noroeste 0 -- -- 74
2019-05-25 03:00:00 13.4 8 Noroeste 15 Noroeste 0 -- -- 73
2019-05-25 02:00:00 13.6 8 Oeste 16 Noroeste 0 -- -- 72
2019-05-25 01:00:00 13.5 10 Oeste 16 Noroeste 0 -- -- 73
2019-05-25 00:00:00 13.1 8 Noroeste 14 Oeste 0 -- -- 85